sensor_id;sensor_type;location;lat;lon;timestamp;temperature;humidity
33105;DHT22;19476;51.448;6.674;2023-07-31T00:00:33;21.00;66.40
33105;DHT22;19476;51.448;6.674;2023-07-31T00:02:59;21.00;66.50
33105;DHT22;19476;51.448;6.674;2023-07-31T00:05:25;20.90;66.40
33105;DHT22;19476;51.448;6.674;2023-07-31T00:07:51;20.90;66.60
33105;DHT22;19476;51.448;6.674;2023-07-31T00:10:16;20.90;66.60
33105;DHT22;19476;51.448;6.674;2023-07-31T00:12:45;20.90;66.60
33105;DHT22;19476;51.448;6.674;2023-07-31T00:15:13;20.90;66.70
33105;DHT22;19476;51.448;6.674;2023-07-31T00:17:39;20.90;66.80
33105;DHT22;19476;51.448;6.674;2023-07-31T00:20:05;20.90;66.70
33105;DHT22;19476;51.448;6.674;2023-07-31T00:22:31;20.90;66.90
33105;DHT22;19476;51.448;6.674;2023-07-31T00:24:57;20.90;66.90
33105;DHT22;19476;51.448;6.674;2023-07-31T00:27:23;20.80;66.80
33105;DHT22;19476;51.448;6.674;2023-07-31T00:29:49;20.80;66.80
33105;DHT22;19476;51.448;6.674;2023-07-31T00:32:14;20.80;66.80
33105;DHT22;19476;51.448;6.674;2023-07-31T00:34:40;20.80;66.80
33105;DHT22;19476;51.448;6.674;2023-07-31T00:37:06;20.80;66.70
33105;DHT22;19476;51.448;6.674;2023-07-31T00:39:34;20.80;66.70
33105;DHT22;19476;51.448;6.674;2023-07-31T00:41:59;20.80;66.80
33105;DHT22;19476;51.448;6.674;2023-07-31T00:44:25;20.80;66.60
33105;DHT22;19476;51.448;6.674;2023-07-31T00:46:51;20.80;66.60
33105;DHT22;19476;51.448;6.674;2023-07-31T00:49:18;20.80;66.70
33105;DHT22;19476;51.448;6.674;2023-07-31T00:51:43;20.60;66.40
33105;DHT22;19476;51.448;6.674;2023-07-31T00:54:10;20.80;66.50
33105;DHT22;19476;51.448;6.674;2023-07-31T00:56:36;20.80;66.70
33105;DHT22;19476;51.448;6.674;2023-07-31T00:59:03;20.80;66.70
33105;DHT22;19476;51.448;6.674;2023-07-31T01:01:28;20.80;66.50
33105;DHT22;19476;51.448;6.674;2023-07-31T01:03:55;20.80;66.50
33105;DHT22;19476;51.448;6.674;2023-07-31T01:09:04;20.90;66.50
33105;DHT22;19476;51.448;6.674;2023-07-31T01:11:45;20.90;66.50
33105;DHT22;19476;51.448;6.674;2023-07-31T01:14:12;20.90;66.20
33105;DHT22;19476;51.448;6.674;2023-07-31T01:16:37;20.90;65.90
33105;DHT22;19476;51.448;6.674;2023-07-31T01:19:03;20.90;65.90
33105;DHT22;19476;51.448;6.674;2023-07-31T01:24:20;20.90;65.90
33105;DHT22;19476;51.448;6.674;2023-07-31T01:26:53;20.90;65.90
33105;DHT22;19476;51.448;6.674;2023-07-31T01:29:35;20.90;65.60
33105;DHT22;19476;51.448;6.674;2023-07-31T01:32:03;20.90;65.80
33105;DHT22;19476;51.448;6.674;2023-07-31T01:34:31;20.90;65.30
33105;DHT22;19476;51.448;6.674;2023-07-31T01:36:57;20.90;65.20
33105;DHT22;19476;51.448;6.674;2023-07-31T01:39:24;20.90;65.20
33105;DHT22;19476;51.448;6.674;2023-07-31T01:41:49;20.90;64.90
33105;DHT22;19476;51.448;6.674;2023-07-31T01:44:15;20.90;64.80
33105;DHT22;19476;51.448;6.674;2023-07-31T01:46:41;20.90;64.80
33105;DHT22;19476;51.448;6.674;2023-07-31T01:49:07;20.90;64.70
33105;DHT22;19476;51.448;6.674;2023-07-31T01:51:32;20.90;64.50
33105;DHT22;19476;51.448;6.674;2023-07-31T01:54:01;20.90;64.40
33105;DHT22;19476;51.448;6.674;2023-07-31T01:56:27;20.90;64.20
33105;DHT22;19476;51.448;6.674;2023-07-31T01:58:53;20.90;64.20
33105;DHT22;19476;51.448;6.674;2023-07-31T02:01:18;20.90;64.20
33105;DHT22;19476;51.448;6.674;2023-07-31T02:03:44;20.90;64.10
33105;DHT22;19476;51.448;6.674;2023-07-31T02:06:10;20.90;64.10
33105;DHT22;19476;51.448;6.674;2023-07-31T02:08:35;20.80;63.90
33105;DHT22;19476;51.448;6.674;2023-07-31T02:11:01;20.90;63.90
33105;DHT22;19476;51.448;6.674;2023-07-31T02:13:27;20.90;63.80
33105;DHT22;19476;51.448;6.674;2023-07-31T02:15:53;20.90;63.70
33105;DHT22;19476;51.448;6.674;2023-07-31T02:18:19;20.90;63.80
33105;DHT22;19476;51.448;6.674;2023-07-31T02:20:52;20.90;63.90
33105;DHT22;19476;51.448;6.674;2023-07-31T02:23:18;20.90;63.80
33105;DHT22;19476;51.448;6.674;2023-07-31T02:25:45;20.90;63.70
33105;DHT22;19476;51.448;6.674;2023-07-31T02:28:11;20.90;63.80
33105;DHT22;19476;51.448;6.674;2023-07-31T02:30:36;20.90;63.60
33105;DHT22;19476;51.448;6.674;2023-07-31T02:33:03;20.90;63.40
33105;DHT22;19476;51.448;6.674;2023-07-31T02:35:29;20.90;63.50
33105;DHT22;19476;51.448;6.674;2023-07-31T02:37:54;20.90;63.30
33105;DHT22;19476;51.448;6.674;2023-07-31T02:40:20;20.90;63.20
33105;DHT22;19476;51.448;6.674;2023-07-31T02:42:46;20.90;63.10
33105;DHT22;19476;51.448;6.674;2023-07-31T02:45:12;20.90;63.00
33105;DHT22;19476;51.448;6.674;2023-07-31T02:47:37;20.90;63.00
33105;DHT22;19476;51.448;6.674;2023-07-31T02:50:04;20.90;62.90
33105;DHT22;19476;51.448;6.674;2023-07-31T02:52:30;20.90;62.90
33105;DHT22;19476;51.448;6.674;2023-07-31T02:54:57;20.90;62.90
33105;DHT22;19476;51.448;6.674;2023-07-31T02:57:22;20.90;63.00
33105;DHT22;19476;51.448;6.674;2023-07-31T02:59:48;20.90;62.90
33105;DHT22;19476;51.448;6.674;2023-07-31T03:02:14;20.90;63.00
33105;DHT22;19476;51.448;6.674;2023-07-31T03:04:40;20.90;63.00
33105;DHT22;19476;51.448;6.674;2023-07-31T03:07:06;20.90;62.90
33105;DHT22;19476;51.448;6.674;2023-07-31T03:09:32;20.90;62.90
33105;DHT22;19476;51.448;6.674;2023-07-31T03:11:57;20.90;63.00
33105;DHT22;19476;51.448;6.674;2023-07-31T03:14:23;20.90;63.00
33105;DHT22;19476;51.448;6.674;2023-07-31T03:16:49;20.90;63.00
33105;DHT22;19476;51.448;6.674;2023-07-31T03:19:15;20.90;63.00
33105;DHT22;19476;51.448;6.674;2023-07-31T03:21:41;20.90;63.00
33105;DHT22;19476;51.448;6.674;2023-07-31T03:24:06;21.00;63.00
33105;DHT22;19476;51.448;6.674;2023-07-31T03:26:32;21.00;63.00
33105;DHT22;19476;51.448;6.674;2023-07-31T03:28:58;21.00;63.00
33105;DHT22;19476;51.448;6.674;2023-07-31T03:31:24;21.00;63.10
33105;DHT22;19476;51.448;6.674;2023-07-31T03:33:50;21.00;63.10
33105;DHT22;19476;51.448;6.674;2023-07-31T03:36:15;21.00;63.10
33105;DHT22;19476;51.448;6.674;2023-07-31T03:38:41;21.00;63.20
33105;DHT22;19476;51.448;6.674;2023-07-31T03:41:07;21.00;63.20
33105;DHT22;19476;51.448;6.674;2023-07-31T03:43:33;21.00;63.20
33105;DHT22;19476;51.448;6.674;2023-07-31T03:46:01;21.00;63.20
33105;DHT22;19476;51.448;6.674;2023-07-31T03:48:28;21.10;63.20
33105;DHT22;19476;51.448;6.674;2023-07-31T03:50:54;21.10;63.10
33105;DHT22;19476;51.448;6.674;2023-07-31T03:53:19;21.10;63.10
33105;DHT22;19476;51.448;6.674;2023-07-31T03:55:45;21.10;63.10
33105;DHT22;19476;51.448;6.674;2023-07-31T03:58:11;21.10;63.00
33105;DHT22;19476;51.448;6.674;2023-07-31T04:00:37;21.10;62.90
33105;DHT22;19476;51.448;6.674;2023-07-31T04:03:03;21.10;63.00
33105;DHT22;19476;51.448;6.674;2023-07-31T04:05:31;21.10;62.90
33105;DHT22;19476;51.448;6.674;2023-07-31T04:07:56;21.20;63.10
33105;DHT22;19476;51.448;6.674;2023-07-31T04:10:22;21.20;62.90
33105;DHT22;19476;51.448;6.674;2023-07-31T04:12:48;20.90;62.80
33105;DHT22;19476;51.448;6.674;2023-07-31T04:15:14;21.20;63.00
33105;DHT22;19476;51.448;6.674;2023-07-31T04:17:40;21.20;63.00
33105;DHT22;19476;51.448;6.674;2023-07-31T04:20:06;21.20;62.90
33105;DHT22;19476;51.448;6.674;2023-07-31T04:22:32;21.30;63.00
33105;DHT22;19476;51.448;6.674;2023-07-31T04:24:58;21.20;62.90
33105;DHT22;19476;51.448;6.674;2023-07-31T04:27:23;21.20;62.90
33105;DHT22;19476;51.448;6.674;2023-07-31T04:29:49;21.30;63.00
33105;DHT22;19476;51.448;6.674;2023-07-31T04:32:15;21.30;63.00
33105;DHT22;19476;51.448;6.674;2023-07-31T04:34:44;21.30;63.10
33105;DHT22;19476;51.448;6.674;2023-07-31T04:37:10;21.30;63.00
33105;DHT22;19476;51.448;6.674;2023-07-31T04:39:36;21.30;63.00
33105;DHT22;19476;51.448;6.674;2023-07-31T04:42:02;21.30;62.90
33105;DHT22;19476;51.448;6.674;2023-07-31T04:44:28;21.30;62.90
33105;DHT22;19476;51.448;6.674;2023-07-31T04:46:53;21.30;62.90
33105;DHT22;19476;51.448;6.674;2023-07-31T04:49:19;21.30;63.00
33105;DHT22;19476;51.448;6.674;2023-07-31T04:51:45;21.40;63.00
33105;DHT22;19476;51.448;6.674;2023-07-31T04:54:10;21.40;63.00
33105;DHT22;19476;51.448;6.674;2023-07-31T04:56:38;21.40;62.90
33105;DHT22;19476;51.448;6.674;2023-07-31T04:59:03;21.40;62.90
33105;DHT22;19476;51.448;6.674;2023-07-31T05:01:29;21.40;62.90
33105;DHT22;19476;51.448;6.674;2023-07-31T05:03:55;21.40;62.90
33105;DHT22;19476;51.448;6.674;2023-07-31T05:06:21;21.40;63.00
33105;DHT22;19476;51.448;6.674;2023-07-31T05:08:46;21.50;63.10
33105;DHT22;19476;51.448;6.674;2023-07-31T05:11:12;21.40;63.00
33105;DHT22;19476;51.448;6.674;2023-07-31T05:13:38;21.40;63.10
33105;DHT22;19476;51.448;6.674;2023-07-31T05:16:04;21.50;63.20
33105;DHT22;19476;51.448;6.674;2023-07-31T05:18:29;21.50;63.30
33105;DHT22;19476;51.448;6.674;2023-07-31T05:20:55;21.50;63.20
33105;DHT22;19476;51.448;6.674;2023-07-31T05:23:21;21.50;63.30
33105;DHT22;19476;51.448;6.674;2023-07-31T05:25:47;21.50;63.30
33105;DHT22;19476;51.448;6.674;2023-07-31T05:28:12;21.50;63.30
33105;DHT22;19476;51.448;6.674;2023-07-31T05:30:38;21.50;63.30
33105;DHT22;19476;51.448;6.674;2023-07-31T05:33:04;21.50;63.20
33105;DHT22;19476;51.448;6.674;2023-07-31T05:35:30;21.50;63.20
33105;DHT22;19476;51.448;6.674;2023-07-31T05:37:56;21.50;63.20
33105;DHT22;19476;51.448;6.674;2023-07-31T05:40:21;21.50;63.10
33105;DHT22;19476;51.448;6.674;2023-07-31T05:42:47;21.50;63.10
33105;DHT22;19476;51.448;6.674;2023-07-31T05:45:13;21.50;63.20
33105;DHT22;19476;51.448;6.674;2023-07-31T05:47:39;21.50;63.10
33105;DHT22;19476;51.448;6.674;2023-07-31T05:50:05;21.50;63.10
33105;DHT22;19476;51.448;6.674;2023-07-31T05:52:31;21.50;63.10
33105;DHT22;19476;51.448;6.674;2023-07-31T05:54:57;21.50;63.20
33105;DHT22;19476;51.448;6.674;2023-07-31T05:57:23;21.50;63.20
33105;DHT22;19476;51.448;6.674;2023-07-31T05:59:48;21.50;63.30
33105;DHT22;19476;51.448;6.674;2023-07-31T06:02:14;21.50;63.30
33105;DHT22;19476;51.448;6.674;2023-07-31T06:04:40;21.60;63.40
33105;DHT22;19476;51.448;6.674;2023-07-31T06:07:06;21.60;63.30
33105;DHT22;19476;51.448;6.674;2023-07-31T06:09:32;21.60;63.30
33105;DHT22;19476;51.448;6.674;2023-07-31T06:11:57;21.60;63.30
33105;DHT22;19476;51.448;6.674;2023-07-31T06:14:23;21.60;63.40
33105;DHT22;19476;51.448;6.674;2023-07-31T06:16:49;21.60;63.50
33105;DHT22;19476;51.448;6.674;2023-07-31T06:19:14;21.60;63.70
33105;DHT22;19476;51.448;6.674;2023-07-31T06:21:40;21.60;63.70
33105;DHT22;19476;51.448;6.674;2023-07-31T06:24:08;21.60;63.80
33105;DHT22;19476;51.448;6.674;2023-07-31T06:26:34;21.60;63.90
33105;DHT22;19476;51.448;6.674;2023-07-31T06:29:00;21.60;63.90
33105;DHT22;19476;51.448;6.674;2023-07-31T06:31:26;21.60;64.10
33105;DHT22;19476;51.448;6.674;2023-07-31T06:33:52;21.90;64.40
33105;DHT22;19476;51.448;6.674;2023-07-31T06:36:18;21.50;64.30
33105;DHT22;19476;51.448;6.674;2023-07-31T06:38:44;21.50;64.50
33105;DHT22;19476;51.448;6.674;2023-07-31T06:41:10;21.50;64.60
33105;DHT22;19476;51.448;6.674;2023-07-31T06:43:36;21.40;64.60
33105;DHT22;19476;51.448;6.674;2023-07-31T06:46:06;21.40;64.80
33105;DHT22;19476;51.448;6.674;2023-07-31T06:48:33;21.40;65.20
33105;DHT22;19476;51.448;6.674;2023-07-31T06:51:00;21.40;65.00
33105;DHT22;19476;51.448;6.674;2023-07-31T06:53:25;21.40;65.10
33105;DHT22;19476;51.448;6.674;2023-07-31T06:55:51;21.40;65.20
33105;DHT22;19476;51.448;6.674;2023-07-31T06:58:17;21.40;65.30
33105;DHT22;19476;51.448;6.674;2023-07-31T07:00:43;21.40;65.60
33105;DHT22;19476;51.448;6.674;2023-07-31T07:03:09;21.30;65.60
33105;DHT22;19476;51.448;6.674;2023-07-31T07:05:34;21.30;65.60
33105;DHT22;19476;51.448;6.674;2023-07-31T07:08:00;21.30;65.60
33105;DHT22;19476;51.448;6.674;2023-07-31T07:10:25;21.30;65.80
33105;DHT22;19476;51.448;6.674;2023-07-31T07:12:51;21.30;65.90
33105;DHT22;19476;51.448;6.674;2023-07-31T07:15:17;21.30;66.10
33105;DHT22;19476;51.448;6.674;2023-07-31T07:17:43;21.30;66.20
33105;DHT22;19476;51.448;6.674;2023-07-31T07:20:09;21.30;66.30
33105;DHT22;19476;51.448;6.674;2023-07-31T07:22:34;21.30;66.30
33105;DHT22;19476;51.448;6.674;2023-07-31T07:25:00;21.30;66.40
33105;DHT22;19476;51.448;6.674;2023-07-31T07:27:26;21.30;66.40
33105;DHT22;19476;51.448;6.674;2023-07-31T07:29:51;21.30;66.60
33105;DHT22;19476;51.448;6.674;2023-07-31T07:32:21;21.30;66.70
33105;DHT22;19476;51.448;6.674;2023-07-31T07:34:48;21.30;66.70
33105;DHT22;19476;51.448;6.674;2023-07-31T07:37:14;21.30;66.90
33105;DHT22;19476;51.448;6.674;2023-07-31T07:39:40;21.30;66.70
33105;DHT22;19476;51.448;6.674;2023-07-31T07:42:06;21.30;66.60
33105;DHT22;19476;51.448;6.674;2023-07-31T07:44:31;21.30;66.50
33105;DHT22;19476;51.448;6.674;2023-07-31T07:46:57;21.30;66.50
33105;DHT22;19476;51.448;6.674;2023-07-31T07:49:23;21.20;66.40
33105;DHT22;19476;51.448;6.674;2023-07-31T07:51:49;21.20;66.50
33105;DHT22;19476;51.448;6.674;2023-07-31T07:54:15;21.20;66.50
33105;DHT22;19476;51.448;6.674;2023-07-31T07:56:42;21.20;66.60
33105;DHT22;19476;51.448;6.674;2023-07-31T07:59:09;21.10;66.60
33105;DHT22;19476;51.448;6.674;2023-07-31T08:01:34;21.10;66.50
33105;DHT22;19476;51.448;6.674;2023-07-31T08:04:00;21.10;66.60
33105;DHT22;19476;51.448;6.674;2023-07-31T08:06:25;21.10;66.70
33105;DHT22;19476;51.448;6.674;2023-07-31T08:08:51;21.10;66.80
33105;DHT22;19476;51.448;6.674;2023-07-31T08:11:17;21.10;66.80
33105;DHT22;19476;51.448;6.674;2023-07-31T08:13:43;21.10;66.90
33105;DHT22;19476;51.448;6.674;2023-07-31T08:16:09;21.10;67.00
33105;DHT22;19476;51.448;6.674;2023-07-31T08:18:35;21.10;67.00
33105;DHT22;19476;51.448;6.674;2023-07-31T08:21:02;21.10;67.10
33105;DHT22;19476;51.448;6.674;2023-07-31T08:23:28;21.10;67.10
33105;DHT22;19476;51.448;6.674;2023-07-31T08:25:54;21.10;67.00
33105;DHT22;19476;51.448;6.674;2023-07-31T08:28:20;21.00;67.10
33105;DHT22;19476;51.448;6.674;2023-07-31T08:30:45;21.00;67.10
33105;DHT22;19476;51.448;6.674;2023-07-31T08:33:11;21.00;67.20
33105;DHT22;19476;51.448;6.674;2023-07-31T08:35:37;21.00;67.20
33105;DHT22;19476;51.448;6.674;2023-07-31T08:38:02;21.00;67.20
33105;DHT22;19476;51.448;6.674;2023-07-31T08:40:29;21.00;67.20
33105;DHT22;19476;51.448;6.674;2023-07-31T08:42:55;21.00;67.00
33105;DHT22;19476;51.448;6.674;2023-07-31T08:45:28;21.00;67.10
33105;DHT22;19476;51.448;6.674;2023-07-31T08:47:55;21.00;67.20
33105;DHT22;19476;51.448;6.674;2023-07-31T08:50:22;21.00;67.10
33105;DHT22;19476;51.448;6.674;2023-07-31T08:52:49;21.00;67.10
33105;DHT22;19476;51.448;6.674;2023-07-31T08:55:16;21.00;67.10
33105;DHT22;19476;51.448;6.674;2023-07-31T08:57:43;21.00;67.20
33105;DHT22;19476;51.448;6.674;2023-07-31T09:00:10;20.90;67.10
33105;DHT22;19476;51.448;6.674;2023-07-31T09:05:14;21.00;67.40
33105;DHT22;19476;51.448;6.674;2023-07-31T09:07:42;21.00;67.30
33105;DHT22;19476;51.448;6.674;2023-07-31T09:10:11;21.00;67.30
33105;DHT22;19476;51.448;6.674;2023-07-31T09:12:38;21.00;67.60
33105;DHT22;19476;51.448;6.674;2023-07-31T09:15:05;21.00;67.10
33105;DHT22;19476;51.448;6.674;2023-07-31T09:17:36;21.00;67.30
33105;DHT22;19476;51.448;6.674;2023-07-31T09:20:18;21.00;67.60
33105;DHT22;19476;51.448;6.674;2023-07-31T09:22:45;21.00;68.10
33105;DHT22;19476;51.448;6.674;2023-07-31T09:25:28;21.00;67.80
33105;DHT22;19476;51.448;6.674;2023-07-31T09:27:59;21.00;68.30
33105;DHT22;19476;51.448;6.674;2023-07-31T09:30:26;21.10;68.10
33105;DHT22;19476;51.448;6.674;2023-07-31T09:33:02;21.10;67.80
33105;DHT22;19476;51.448;6.674;2023-07-31T09:35:32;21.10;68.20
33105;DHT22;19476;51.448;6.674;2023-07-31T09:37:58;21.10;68.00
33105;DHT22;19476;51.448;6.674;2023-07-31T09:40:33;21.10;68.40
33105;DHT22;19476;51.448;6.674;2023-07-31T09:46:21;21.20;68.50
33105;DHT22;19476;51.448;6.674;2023-07-31T09:48:47;21.20;67.70
33105;DHT22;19476;51.448;6.674;2023-07-31T09:51:13;21.20;67.70
33105;DHT22;19476;51.448;6.674;2023-07-31T09:53:38;21.20;67.90
33105;DHT22;19476;51.448;6.674;2023-07-31T09:56:05;21.20;67.90
33105;DHT22;19476;51.448;6.674;2023-07-31T09:58:33;21.20;68.10
33105;DHT22;19476;51.448;6.674;2023-07-31T10:01:01;21.20;68.10
33105;DHT22;19476;51.448;6.674;2023-07-31T10:03:27;21.20;68.20
33105;DHT22;19476;51.448;6.674;2023-07-31T10:05:56;21.30;68.20
33105;DHT22;19476;51.448;6.674;2023-07-31T10:08:28;21.30;68.20
33105;DHT22;19476;51.448;6.674;2023-07-31T10:10:58;21.30;68.40
33105;DHT22;19476;51.448;6.674;2023-07-31T10:13:25;21.30;68.30
33105;DHT22;19476;51.448;6.674;2023-07-31T10:15:53;21.30;68.20
33105;DHT22;19476;51.448;6.674;2023-07-31T10:18:20;21.30;68.30
33105;DHT22;19476;51.448;6.674;2023-07-31T10:20:47;21.40;68.20
33105;DHT22;19476;51.448;6.674;2023-07-31T10:23:12;21.30;68.00
33105;DHT22;19476;51.448;6.674;2023-07-31T10:25:39;21.30;67.90
33105;DHT22;19476;51.448;6.674;2023-07-31T10:28:05;21.40;68.00
33105;DHT22;19476;51.448;6.674;2023-07-31T10:30:33;21.40;67.80
33105;DHT22;19476;51.448;6.674;2023-07-31T10:33:03;21.40;67.90
33105;DHT22;19476;51.448;6.674;2023-07-31T10:35:29;21.40;67.90
33105;DHT22;19476;51.448;6.674;2023-07-31T10:37:55;21.40;67.70
33105;DHT22;19476;51.448;6.674;2023-07-31T10:40:26;21.50;67.90
33105;DHT22;19476;51.448;6.674;2023-07-31T10:42:56;21.50;67.80
33105;DHT22;19476;51.448;6.674;2023-07-31T10:45:42;21.50;67.80
33105;DHT22;19476;51.448;6.674;2023-07-31T10:48:16;21.60;67.50
33105;DHT22;19476;51.448;6.674;2023-07-31T10:50:55;21.60;67.40
33105;DHT22;19476;51.448;6.674;2023-07-31T10:53:26;21.70;67.20
33105;DHT22;19476;51.448;6.674;2023-07-31T10:55:52;21.70;66.60
33105;DHT22;19476;51.448;6.674;2023-07-31T10:58:20;21.70;66.50
33105;DHT22;19476;51.448;6.674;2023-07-31T11:00:46;21.70;66.70
33105;DHT22;19476;51.448;6.674;2023-07-31T11:03:19;21.70;66.90
33105;DHT22;19476;51.448;6.674;2023-07-31T11:06:02;21.80;67.00
33105;DHT22;19476;51.448;6.674;2023-07-31T11:08:41;21.80;66.80
33105;DHT22;19476;51.448;6.674;2023-07-31T11:11:08;21.90;66.60
33105;DHT22;19476;51.448;6.674;2023-07-31T11:13:45;21.80;66.60
33105;DHT22;19476;51.448;6.674;2023-07-31T11:16:12;21.90;66.70
33105;DHT22;19476;51.448;6.674;2023-07-31T11:18:40;21.90;66.50
33105;DHT22;19476;51.448;6.674;2023-07-31T11:21:06;21.90;66.40
33105;DHT22;19476;51.448;6.674;2023-07-31T11:23:32;22.00;66.20
33105;DHT22;19476;51.448;6.674;2023-07-31T11:26:01;22.00;66.20
33105;DHT22;19476;51.448;6.674;2023-07-31T11:28:34;22.00;66.30
33105;DHT22;19476;51.448;6.674;2023-07-31T11:31:01;22.00;66.30
33105;DHT22;19476;51.448;6.674;2023-07-31T11:33:27;22.00;66.30
33105;DHT22;19476;51.448;6.674;2023-07-31T11:35:53;22.00;66.20
33105;DHT22;19476;51.448;6.674;2023-07-31T11:38:31;22.00;66.10
33105;DHT22;19476;51.448;6.674;2023-07-31T11:41:01;22.00;66.40
33105;DHT22;19476;51.448;6.674;2023-07-31T11:43:28;22.00;66.30
33105;DHT22;19476;51.448;6.674;2023-07-31T11:45:59;22.00;66.30
33105;DHT22;19476;51.448;6.674;2023-07-31T11:48:26;22.00;66.60
33105;DHT22;19476;51.448;6.674;2023-07-31T11:50:54;22.00;66.60
33105;DHT22;19476;51.448;6.674;2023-07-31T11:53:36;22.00;66.70
33105;DHT22;19476;51.448;6.674;2023-07-31T11:56:04;22.00;67.10
33105;DHT22;19476;51.448;6.674;2023-07-31T11:58:31;22.00;66.80
33105;DHT22;19476;51.448;6.674;2023-07-31T12:00:59;22.10;66.70
33105;DHT22;19476;51.448;6.674;2023-07-31T12:03:26;22.10;66.60
33105;DHT22;19476;51.448;6.674;2023-07-31T12:05:55;22.10;66.50
33105;DHT22;19476;51.448;6.674;2023-07-31T12:08:23;22.10;66.50
33105;DHT22;19476;51.448;6.674;2023-07-31T12:10:53;22.10;66.60
33105;DHT22;19476;51.448;6.674;2023-07-31T12:13:26;22.10;66.70
33105;DHT22;19476;51.448;6.674;2023-07-31T12:15:59;22.10;66.80
33105;DHT22;19476;51.448;6.674;2023-07-31T12:18:29;22.10;66.90
33105;DHT22;19476;51.448;6.674;2023-07-31T12:23:22;22.10;66.50
33105;DHT22;19476;51.448;6.674;2023-07-31T12:26:14;22.10;66.70
33105;DHT22;19476;51.448;6.674;2023-07-31T12:28:44;22.20;66.90
33105;DHT22;19476;51.448;6.674;2023-07-31T12:31:12;22.20;66.60
33105;DHT22;19476;51.448;6.674;2023-07-31T12:33:39;22.20;66.70
33105;DHT22;19476;51.448;6.674;2023-07-31T12:36:13;22.30;66.60
33105;DHT22;19476;51.448;6.674;2023-07-31T12:38:40;22.40;66.60
33105;DHT22;19476;51.448;6.674;2023-07-31T12:41:06;22.40;66.10
33105;DHT22;19476;51.448;6.674;2023-07-31T12:43:33;22.40;65.90
33105;DHT22;19476;51.448;6.674;2023-07-31T12:45:59;22.40;65.80
33105;DHT22;19476;51.448;6.674;2023-07-31T12:48:25;22.50;65.70
33105;DHT22;19476;51.448;6.674;2023-07-31T12:50:51;22.50;65.70
33105;DHT22;19476;51.448;6.674;2023-07-31T12:53:17;22.50;65.50
33105;DHT22;19476;51.448;6.674;2023-07-31T12:55:43;22.50;65.20
33105;DHT22;19476;51.448;6.674;2023-07-31T12:58:09;22.50;65.10
33105;DHT22;19476;51.448;6.674;2023-07-31T13:00:35;22.40;65.10
33105;DHT22;19476;51.448;6.674;2023-07-31T13:03:01;22.50;65.20
33105;DHT22;19476;51.448;6.674;2023-07-31T13:05:28;22.50;65.40
33105;DHT22;19476;51.448;6.674;2023-07-31T13:07:54;22.40;65.40
33105;DHT22;19476;51.448;6.674;2023-07-31T13:10:20;22.50;65.50
33105;DHT22;19476;51.448;6.674;2023-07-31T13:12:46;22.50;65.40
33105;DHT22;19476;51.448;6.674;2023-07-31T13:15:12;22.60;65.30
33105;DHT22;19476;51.448;6.674;2023-07-31T13:17:38;22.60;65.20
33105;DHT22;19476;51.448;6.674;2023-07-31T13:20:04;22.60;65.10
33105;DHT22;19476;51.448;6.674;2023-07-31T13:22:30;22.60;64.90
33105;DHT22;19476;51.448;6.674;2023-07-31T13:24:56;22.70;65.00
33105;DHT22;19476;51.448;6.674;2023-07-31T13:27:23;22.70;64.90
33105;DHT22;19476;51.448;6.674;2023-07-31T13:29:53;22.70;64.60
33105;DHT22;19476;51.448;6.674;2023-07-31T13:32:20;22.50;64.60
33105;DHT22;19476;51.448;6.674;2023-07-31T13:34:47;22.70;64.50
33105;DHT22;19476;51.448;6.674;2023-07-31T13:37:13;22.70;64.50
33105;DHT22;19476;51.448;6.674;2023-07-31T13:39:40;22.70;64.50
33105;DHT22;19476;51.448;6.674;2023-07-31T13:42:07;22.70;64.30
33105;DHT22;19476;51.448;6.674;2023-07-31T13:44:34;22.70;64.50
33105;DHT22;19476;51.448;6.674;2023-07-31T13:47:00;22.80;64.50
33105;DHT22;19476;51.448;6.674;2023-07-31T13:49:27;22.70;64.50
33105;DHT22;19476;51.448;6.674;2023-07-31T13:51:52;22.80;64.40
33105;DHT22;19476;51.448;6.674;2023-07-31T13:54:18;22.70;64.30
33105;DHT22;19476;51.448;6.674;2023-07-31T13:56:44;22.70;64.50
33105;DHT22;19476;51.448;6.674;2023-07-31T13:59:10;22.80;64.70
33105;DHT22;19476;51.448;6.674;2023-07-31T14:01:36;22.90;64.90
33105;DHT22;19476;51.448;6.674;2023-07-31T14:04:02;22.90;64.90
33105;DHT22;19476;51.448;6.674;2023-07-31T14:06:28;23.00;64.80
33105;DHT22;19476;51.448;6.674;2023-07-31T14:08:54;23.00;64.40
33105;DHT22;19476;51.448;6.674;2023-07-31T14:11:21;23.10;64.30
33105;DHT22;19476;51.448;6.674;2023-07-31T14:13:47;23.10;64.20
33105;DHT22;19476;51.448;6.674;2023-07-31T14:16:13;23.20;64.00
33105;DHT22;19476;51.448;6.674;2023-07-31T14:18:39;23.20;63.80
33105;DHT22;19476;51.448;6.674;2023-07-31T14:21:05;23.30;63.60
33105;DHT22;19476;51.448;6.674;2023-07-31T14:23:30;23.30;63.40
33105;DHT22;19476;51.448;6.674;2023-07-31T14:25:56;23.30;63.10
33105;DHT22;19476;51.448;6.674;2023-07-31T14:28:22;23.30;63.00
33105;DHT22;19476;51.448;6.674;2023-07-31T14:30:48;23.30;62.90
33105;DHT22;19476;51.448;6.674;2023-07-31T14:33:13;23.30;62.60
33105;DHT22;19476;51.448;6.674;2023-07-31T14:35:39;23.30;62.50
33105;DHT22;19476;51.448;6.674;2023-07-31T14:38:05;23.30;62.50
33105;DHT22;19476;51.448;6.674;2023-07-31T14:40:31;23.30;62.50
33105;DHT22;19476;51.448;6.674;2023-07-31T14:42:57;23.30;62.60
33105;DHT22;19476;51.448;6.674;2023-07-31T14:45:23;23.30;62.60
33105;DHT22;19476;51.448;6.674;2023-07-31T14:47:49;23.30;62.60
33105;DHT22;19476;51.448;6.674;2023-07-31T14:50:15;23.30;62.60
33105;DHT22;19476;51.448;6.674;2023-07-31T14:52:40;23.30;62.70
33105;DHT22;19476;51.448;6.674;2023-07-31T14:55:06;23.30;62.80
33105;DHT22;19476;51.448;6.674;2023-07-31T14:57:33;23.20;62.70
33105;DHT22;19476;51.448;6.674;2023-07-31T14:59:59;23.20;62.60
33105;DHT22;19476;51.448;6.674;2023-07-31T15:02:26;23.20;62.50
33105;DHT22;19476;51.448;6.674;2023-07-31T15:04:53;23.10;62.40
33105;DHT22;19476;51.448;6.674;2023-07-31T15:07:18;23.10;62.40
33105;DHT22;19476;51.448;6.674;2023-07-31T15:09:44;23.10;62.30
33105;DHT22;19476;51.448;6.674;2023-07-31T15:12:10;23.10;62.40
33105;DHT22;19476;51.448;6.674;2023-07-31T15:14:36;23.10;62.40
33105;DHT22;19476;51.448;6.674;2023-07-31T15:17:01;23.10;62.30
33105;DHT22;19476;51.448;6.674;2023-07-31T15:19:27;23.10;62.20
33105;DHT22;19476;51.448;6.674;2023-07-31T15:21:54;23.10;62.20
33105;DHT22;19476;51.448;6.674;2023-07-31T15:24:21;23.10;62.10
33105;DHT22;19476;51.448;6.674;2023-07-31T15:26:46;23.10;61.80
33105;DHT22;19476;51.448;6.674;2023-07-31T15:29:12;23.10;62.00
33105;DHT22;19476;51.448;6.674;2023-07-31T15:31:43;23.10;62.00
33105;DHT22;19476;51.448;6.674;2023-07-31T15:34:09;23.10;62.00
33105;DHT22;19476;51.448;6.674;2023-07-31T15:36:34;23.10;62.10
33105;DHT22;19476;51.448;6.674;2023-07-31T15:39:00;23.10;61.80
33105;DHT22;19476;51.448;6.674;2023-07-31T15:41:27;23.10;61.80